Time;durP1;ratioP1;P1;durP2;ratioP2;P2;SDS_P1;SDS_P2;PMS_P1;PMS_P2;Temp;Humidity;BMP_temperature;BMP_pressure;BME280_temperature;BME280_humidity;BME280_pressure;Samples;Min_cycle;Max_cycle;Signal;HPM_P1;HPM_P2
2022/01/08 00:01:43;;;;;;;109.57;98.25;;;3.20;98.80;;;;;;5054394;28;20070;-80
2022/01/08 00:04:10;;;;;;;;;;;3.20;98.70;;;;;;5062344;28;20063;-80
2022/01/08 00:06:37;;;;;;;;;;;3.20;98.80;;;;;;5055063;28;19937;-80
2022/01/08 00:09:04;;;;;;;;;;;3.20;98.80;;;;;;5071876;28;20008;-80
2022/01/08 00:11:31;;;;;;;;;;;3.10;98.80;;;;;;5054134;28;19925;-79
2022/01/08 00:13:58;;;;;;;108.68;97.18;;;3.10;98.80;;;;;;5077083;28;19925;-80
2022/01/08 00:16:27;;;;;;;109.63;98.25;;;3.10;98.90;;;;;;5073638;28;20478;-80
2022/01/08 00:18:54;;;;;;;111.00;99.50;;;3.10;98.90;;;;;;5053495;28;20060;-80
2022/01/08 00:21:21;;;;;;;111.68;99.93;;;3.10;99.00;;;;;;5054008;28;20108;-80
2022/01/08 00:23:48;;;;;;;111.13;99.53;;;3.10;99.00;;;;;;5074040;28;20137;-80
2022/01/08 00:26:16;;;;;;;111.38;99.95;;;3.10;99.00;;;;;;5071568;28;20128;-80
2022/01/08 00:28:43;;;;;;;111.45;99.75;;;3.10;99.00;;;;;;5072667;28;20550;-80
2022/01/08 00:31:10;;;;;;;109.85;98.55;;;3.10;99.10;;;;;;5065090;28;20139;-80
2022/01/08 00:33:39;;;;;;;110.57;99.10;;;3.10;99.10;;;;;;5073638;28;20139;-80
2022/01/08 00:36:06;;;;;;;110.70;98.95;;;3.10;99.10;;;;;;5073364;28;20610;-80
2022/01/08 00:38:33;;;;;;;109.93;98.63;;;3.10;99.10;;;;;;5073358;28;20063;-80
2022/01/08 00:41:00;;;;;;;;;;;3.10;99.10;;;;;;5064990;28;20050;-80
2022/01/08 00:43:27;;;;;;;110.13;98.68;;;3.20;99.10;;;;;;5099928;28;19924;-80
2022/01/08 00:45:55;;;;;;;112.18;100.22;;;3.20;99.10;;;;;;5056872;28;20056;-80
2022/01/08 00:48:22;;;;;;;111.03;99.45;;;3.20;99.10;;;;;;5036510;28;20140;-80
2022/01/08 00:50:52;;;;;;;110.65;99.30;;;3.20;99.20;;;;;;5044071;28;20507;-80
2022/01/08 00:53:19;;;;;;;111.90;100.20;;;3.20;99.20;;;;;;5073234;28;20061;-80
2022/01/08 00:55:48;;;;;;;111.22;99.93;;;3.20;99.20;;;;;;5073113;28;20580;-80
2022/01/08 00:58:15;;;;;;;109.88;98.57;;;3.20;99.20;;;;;;5056560;28;20095;-80
2022/01/08 01:00:42;;;;;;;;;;;3.20;99.20;;;;;;5071746;28;20145;-80
2022/01/08 01:03:09;;;;;;;110.70;99.20;;;3.20;99.10;;;;;;5107807;28;20706;-81
2022/01/08 01:05:37;;;;;;;112.05;100.30;;;3.20;99.10;;;;;;5073143;28;20059;-80
2022/01/08 01:08:07;;;;;;;110.28;98.93;;;3.20;99.10;;;;;;5073073;28;20056;-79
2022/01/08 01:10:34;;;;;;;111.88;100.18;;;3.20;99.10;;;;;;5073253;28;20510;-80
2022/01/08 01:13:01;;;;;;;;;;;3.20;99.10;;;;;;5053575;28;20132;-80
2022/01/08 01:15:28;;;;;;;111.55;99.85;;;3.20;99.00;;;;;;5053690;28;19951;-80
2022/01/08 01:17:55;;;;;;;110.75;99.13;;;3.20;99.00;;;;;;5052914;28;20091;-79
2022/01/08 01:20:22;;;;;;;;;;;3.20;99.00;;;;;;5051433;28;20056;-80
2022/01/08 01:22:56;;;;;;;112.50;100.80;;;3.10;99.00;;;;;;5073317;28;19925;-80
2022/01/08 01:25:29;;;;;;;111.28;99.88;;;3.10;99.00;;;;;;5086543;28;20124;-80
2022/01/08 01:28:12;;;;;;;112.65;101.05;;;3.10;99.00;;;;;;5069317;28;20077;-80
2022/01/08 01:31:02;;;;;;;114.30;102.43;;;3.10;99.00;;;;;;5069808;28;20050;-80
2022/01/08 01:42:07;;;;;;;115.10;103.10;;;3.10;98.90;;;;;;5052521;28;20049;-80
2022/01/08 01:47:29;;;;;;;114.15;102.13;;;3.00;98.80;;;;;;5052134;28;20057;-80
2022/01/08 01:49:56;;;;;;;113.75;101.90;;;3.00;98.80;;;;;;5086230;28;20061;-80
2022/01/08 01:52:23;;;;;;;115.32;103.00;;;3.00;98.80;;;;;;5071933;28;20553;-80
2022/01/08 01:54:50;;;;;;;;;;;3.00;98.80;;;;;;5073457;28;20490;-80
2022/01/08 01:57:20;;;;;;;114.05;101.95;;;3.00;98.80;;;;;;5072943;28;19974;-79
2022/01/08 01:59:47;;;;;;;115.07;103.18;;;3.00;98.80;;;;;;5074053;28;20538;-80
2022/01/08 02:02:14;;;;;;;;;;;3.00;98.70;;;;;;5073219;28;20120;-80
2022/01/08 02:04:41;;;;;;;;;;;2.90;98.70;;;;;;5107328;28;19932;-80
2022/01/08 02:07:08;;;;;;;114.22;101.75;;;2.90;98.70;;;;;;5072568;28;19964;-80
2022/01/08 02:09:37;;;;;;;116.75;104.65;;;2.90;98.70;;;;;;5088002;28;20057;-80
2022/01/08 02:12:06;;;;;;;114.10;102.30;;;2.90;98.70;;;;;;5055554;28;20079;-79
2022/01/08 02:14:36;;;;;;;116.15;103.80;;;2.80;98.70;;;;;;5072491;28;20119;-80
2022/01/08 02:17:05;;;;;;;115.78;103.60;;;2.90;98.80;;;;;;5075852;28;20046;-79
2022/01/08 02:19:32;;;;;;;115.47;103.25;;;2.80;98.80;;;;;;5085650;28;20049;-79
2022/01/08 02:22:02;;;;;;;115.15;102.93;;;2.80;98.80;;;;;;5039099;28;20051;-80
2022/01/08 02:24:29;;;;;;;114.45;102.55;;;2.80;98.80;;;;;;5055358;28;20179;-79
2022/01/08 02:26:56;;;;;;;114.90;102.95;;;2.80;98.80;;;;;;5068595;28;20057;-80
2022/01/08 02:29:25;;;;;;;114.15;102.35;;;2.80;99.00;;;;;;5051996;28;20049;-80
2022/01/08 02:31:54;;;;;;;114.78;102.82;;;2.80;99.00;;;;;;5069431;28;20064;-79
2022/01/08 02:34:21;;;;;;;115.38;103.20;;;2.80;99.00;;;;;;5072275;28;20140;-80
2022/01/08 02:36:48;;;;;;;;;;;2.80;99.00;;;;;;5089348;28;20049;-80
2022/01/08 02:39:17;;;;;;;113.63;101.53;;;2.80;99.00;;;;;;5106489;28;19968;-79
2022/01/08 02:41:44;;;;;;;114.05;101.97;;;2.70;99.00;;;;;;5068644;28;20056;-80
2022/01/08 02:44:11;;;;;;;114.55;102.28;;;2.70;99.10;;;;;;5051566;28;20054;-80
2022/01/08 02:46:40;;;;;;;114.50;102.65;;;2.70;99.10;;;;;;5070650;28;20049;-80
2022/01/08 02:49:07;;;;;;;113.57;101.47;;;2.80;99.10;;;;;;5088596;28;20045;-80
2022/01/08 02:51:35;;;;;;;113.10;101.50;;;2.70;99.10;;;;;;5074358;28;20069;-80
2022/01/08 02:54:03;;;;;;;113.18;101.22;;;2.70;99.10;;;;;;5075523;28;20466;-80
2022/01/08 02:56:31;;;;;;;115.82;103.15;;;2.70;99.10;;;;;;5075035;28;20068;-80
2022/01/08 02:58:59;;;;;;;113.63;101.60;;;2.70;99.10;;;;;;5074891;28;20040;-80
2022/01/08 03:01:25;;;;;;;;;;;2.70;99.10;;;;;;5075488;28;20068;-80
2022/01/08 03:03:56;;;;;;;;;;;2.70;99.10;;;;;;5076056;28;19937;-80
2022/01/08 03:06:23;;;;;;;110.63;98.97;;;2.70;99.10;;;;;;5091652;28;20469;-80
2022/01/08 03:08:50;;;;;;;;;;;2.70;99.10;;;;;;5093299;28;20060;-80
2022/01/08 03:11:17;;;;;;;112.20;100.28;;;2.70;99.10;;;;;;5075681;28;20012;-80
2022/01/08 03:13:45;;;;;;;112.85;100.75;;;2.70;99.20;;;;;;5074783;28;20049;-80
2022/01/08 03:16:13;;;;;;;113.07;100.93;;;2.70;99.10;;;;;;5059469;28;20129;-80
2022/01/08 03:18:40;;;;;;;112.28;100.65;;;2.70;99.10;;;;;;5071373;28;20057;-80
2022/01/08 03:21:15;;;;;;;112.57;100.35;;;2.70;99.10;;;;;;5070849;28;20084;-80
2022/01/08 03:23:48;;;;;;;111.45;99.85;;;2.70;99.20;;;;;;5088514;28;20153;-80
2022/01/08 03:26:16;;;;;;;111.80;100.07;;;2.70;99.10;;;;;;5100479;28;20053;-80
2022/01/08 03:28:46;;;;;;;112.35;100.75;;;2.70;99.10;;;;;;5074298;28;20560;-80
2022/01/08 03:31:14;;;;;;;113.82;101.90;;;2.70;99.10;;;;;;5074865;28;20140;-80
2022/01/08 03:33:41;;;;;;;111.70;100.20;;;2.60;99.10;;;;;;5074701;28;20056;-80
2022/01/08 03:36:08;;;;;;;112.25;100.32;;;2.70;99.10;;;;;;5057560;28;20107;-80
2022/01/08 03:38:35;;;;;;;111.90;100.43;;;2.60;99.20;;;;;;5074247;28;20060;-80
2022/01/08 03:41:03;;;;;;;111.75;100.13;;;2.60;99.20;;;;;;5054905;28;20049;-80
2022/01/08 03:43:30;;;;;;;112.00;100.40;;;2.60;99.20;;;;;;5108156;28;20140;-80
2022/01/08 03:46:00;;;;;;;;;;;2.60;99.20;;;;;;5075009;28;20053;-80
2022/01/08 03:48:28;;;;;;;112.68;100.85;;;2.60;99.20;;;;;;5108272;28;20033;-80
2022/01/08 03:50:56;;;;;;;111.82;99.97;;;2.60;99.20;;;;;;5074387;28;20053;-80
2022/01/08 03:53:25;;;;;;;112.22;100.55;;;2.60;99.30;;;;;;5074397;28;20091;-80
2022/01/08 03:55:52;;;;;;;111.40;99.57;;;2.60;99.20;;;;;;5072342;28;20056;-80
2022/01/08 03:58:19;;;;;;;;;;;2.60;99.30;;;;;;5071200;28;20060;-80
2022/01/08 04:00:47;;;;;;;110.93;99.07;;;2.60;99.20;;;;;;5088089;28;19931;-80
2022/01/08 04:03:18;;;;;;;110.63;99.05;;;2.60;99.30;;;;;;5092689;28;20057;-80
2022/01/08 04:05:47;;;;;;;112.13;100.30;;;2.50;99.30;;;;;;5056966;28;20060;-80
2022/01/08 04:08:15;;;;;;;113.10;101.25;;;2.60;99.30;;;;;;5060841;28;20127;-80
2022/01/08 04:10:42;;;;;;;111.28;99.53;;;2.50;99.30;;;;;;5071623;28;20511;-80
2022/01/08 04:13:13;;;;;;;111.63;99.82;;;2.50;99.30;;;;;;5070693;28;20077;-79
2022/01/08 04:15:42;;;;;;;112.15;100.28;;;2.60;99.40;;;;;;5061397;28;20045;-80
2022/01/08 04:18:10;;;;;;;112.38;100.72;;;2.60;99.40;;;;;;5056860;28;20071;-80
2022/01/08 04:20:50;;;;;;;112.05;100.32;;;2.60;99.40;;;;;;5057519;28;20045;-80
2022/01/08 04:23:20;;;;;;;112.10;100.25;;;2.60;99.40;;;;;;5073937;28;20049;-80
2022/01/08 04:25:48;;;;;;;112.03;100.00;;;2.60;99.40;;;;;;5057139;28;20132;-80
2022/01/08 04:28:15;;;;;;;113.80;101.95;;;2.60;99.40;;;;;;5071678;28;20056;-80
2022/01/08 04:30:43;;;;;;;;;;;2.70;99.40;;;;;;5087970;28;20419;-80
2022/01/08 04:33:10;;;;;;;112.40;100.22;;;2.60;99.40;;;;;;5061669;28;20011;-80
2022/01/08 04:35:38;;;;;;;;;;;2.60;99.60;;;;;;5074248;28;20057;-80
2022/01/08 04:38:05;;;;;;;111.20;99.70;;;2.70;99.50;;;;;;5058622;28;19931;-80
2022/01/08 04:40:33;;;;;;;;;;;2.70;99.50;;;;;;5072532;28;20064;-80
2022/01/08 04:43:00;;;;;;;111.07;99.63;;;2.70;99.40;;;;;;5056814;28;19932;-80
2022/01/08 04:45:29;;;;;;;111.68;100.00;;;2.70;99.40;;;;;;5064287;28;20096;-80
2022/01/08 04:47:57;;;;;;;112.43;100.70;;;2.70;99.40;;;;;;5069799;28;20049;-80
2022/01/08 04:50:27;;;;;;;112.38;100.65;;;2.70;99.40;;;;;;5087006;28;20050;-80
2022/01/08 04:52:56;;;;;;;114.47;102.22;;;2.70;99.30;;;;;;5090102;23;20050;-80
2022/01/08 04:55:23;;;;;;;114.05;102.18;;;2.70;99.30;;;;;;5013244;28;20077;-80
2022/01/08 04:57:51;;;;;;;113.10;101.07;;;2.70;99.30;;;;;;5013124;28;20135;-80
2022/01/08 05:00:20;;;;;;;113.93;101.93;;;2.70;99.50;;;;;;4982399;28;20067;-80
2022/01/08 05:02:47;;;;;;;113.43;101.45;;;2.70;99.30;;;;;;4993881;28;20050;-80
2022/01/08 05:05:14;;;;;;;114.25;102.22;;;2.70;99.30;;;;;;5010619;28;20054;-80
2022/01/08 05:07:41;;;;;;;114.20;101.82;;;2.70;99.30;;;;;;4996831;28;20054;-80
2022/01/08 05:10:10;;;;;;;;;;;2.70;99.30;;;;;;4981162;28;20125;-80
2022/01/08 05:12:37;;;;;;;113.00;100.63;;;2.70;99.30;;;;;;4980812;28;19976;-80
2022/01/08 05:15:06;;;;;;;112.78;100.85;;;2.70;99.20;;;;;;4996166;28;20126;-79
2022/01/08 05:17:35;;;;;;;113.28;100.38;;;2.70;99.20;;;;;;5012947;28;20051;-80
2022/01/08 05:20:05;;;;;;;112.72;100.80;;;2.60;99.20;;;;;;5013081;28;20064;-80
2022/01/08 05:22:48;;;;;;;112.30;100.40;;;2.60;99.20;;;;;;4996765;28;20058;-80
2022/01/08 05:25:18;;;;;;;113.30;101.30;;;2.60;99.20;;;;;;5012943;28;20054;-80
2022/01/08 05:27:46;;;;;;;113.13;101.13;;;2.60;99.20;;;;;;5012690;28;20058;-80
2022/01/08 05:30:15;;;;;;;112.25;100.50;;;2.60;99.20;;;;;;5002860;28;20087;-80
2022/01/08 05:32:42;;;;;;;112.40;100.55;;;2.60;99.20;;;;;;5007202;28;20133;-80
2022/01/08 05:35:10;;;;;;;112.10;100.38;;;2.60;99.10;;;;;;5012584;28;20611;-80
2022/01/08 05:37:38;;;;;;;116.10;103.90;;;2.60;99.10;;;;;;4993493;28;20056;-80
2022/01/08 05:40:06;;;;;;;111.65;99.65;;;2.70;99.20;;;;;;4993333;28;20768;-80
2022/01/08 05:42:35;;;;;;;113.38;101.15;;;2.60;99.10;;;;;;4986402;28;20054;-80
2022/01/08 05:45:02;;;;;;;111.95;99.53;;;2.60;99.10;;;;;;4996079;28;20083;-79
2022/01/08 05:47:31;;;;;;;109.72;98.22;;;2.60;99.10;;;;;;5012689;28;20058;-80
2022/01/08 05:49:58;;;;;;;111.30;99.57;;;2.60;99.10;;;;;;4980399;28;20082;-80
2022/01/08 05:52:26;;;;;;;111.75;99.72;;;2.60;99.00;;;;;;4980005;28;20061;-80
2022/01/08 05:54:52;;;;;;;;;;;2.60;99.00;;;;;;4997108;28;20054;-80
2022/01/08 05:57:19;;;;;;;;;;;2.60;99.00;;;;;;5013135;28;19976;-80
2022/01/08 05:59:48;;;;;;;;;;;2.60;99.00;;;;;;4997422;28;19926;-80
2022/01/08 06:02:15;;;;;;;109.32;97.72;;;2.60;98.90;;;;;;4996698;28;19930;-80
2022/01/08 06:04:42;;;;;;;;;;;2.60;98.90;;;;;;4996861;28;20078;-79
2022/01/08 06:07:09;;;;;;;108.53;97.22;;;2.50;98.90;;;;;;4996439;28;20029;-80
2022/01/08 06:09:36;;;;;;;109.78;98.07;;;2.50;98.90;;;;;;4996351;28;20058;-80
2022/01/08 06:12:04;;;;;;;110.53;99.03;;;2.50;98.90;;;;;;4996365;28;20601;-80
2022/01/08 06:14:31;;;;;;;109.85;98.30;;;2.50;99.00;;;;;;5010609;28;20062;-80
2022/01/08 06:16:59;;;;;;;110.03;98.15;;;2.50;99.00;;;;;;4996030;28;20102;-81
2022/01/08 06:19:26;;;;;;;110.38;98.47;;;2.50;99.00;;;;;;4995972;28;20054;-80
2022/01/08 06:21:53;;;;;;;110.85;98.50;;;2.50;99.00;;;;;;4995818;28;20136;-80
2022/01/08 06:24:20;;;;;;;111.25;99.28;;;2.50;99.00;;;;;;4996007;28;20050;-80
2022/01/08 06:26:47;;;;;;;111.22;99.35;;;2.50;98.90;;;;;;4998638;28;20105;-80
2022/01/08 06:29:14;;;;;;;111.30;99.63;;;2.50;98.90;;;;;;4999191;28;20089;-80
2022/01/08 06:31:41;;;;;;;110.10;98.43;;;2.50;98.90;;;;;;4999658;28;20523;-80
2022/01/08 06:34:10;;;;;;;110.53;98.88;;;2.50;98.90;;;;;;4999295;28;20078;-80
2022/01/08 06:36:37;;;;;;;111.78;99.95;;;2.50;98.90;;;;;;4999174;28;20054;-79
2022/01/08 06:39:04;;;;;;;110.22;98.43;;;2.40;98.90;;;;;;4999131;28;20050;-81
2022/01/08 06:41:31;;;;;;;110.97;99.22;;;2.40;98.90;;;;;;5015452;28;20054;-79
2022/01/08 06:43:58;;;;;;;111.97;100.18;;;2.40;98.80;;;;;;5015426;28;20054;-80
2022/01/08 06:46:25;;;;;;;111.43;99.38;;;2.40;98.90;;;;;;4999184;28;20137;-79
2022/01/08 06:48:52;;;;;;;111.25;99.45;;;2.40;98.90;;;;;;4989788;28;20142;-80
2022/01/08 06:51:21;;;;;;;110.75;98.88;;;2.30;98.90;;;;;;5008182;28;20490;-79
2022/01/08 06:53:48;;;;;;;110.80;99.13;;;2.30;98.90;;;;;;4982689;28;20054;-80
2022/01/08 06:56:17;;;;;;;109.65;98.20;;;2.30;98.90;;;;;;4982639;28;20137;-79
2022/01/08 06:58:45;;;;;;;111.85;100.13;;;2.30;98.90;;;;;;4998684;28;20054;-80
2022/01/08 07:01:12;;;;;;;110.95;98.95;;;2.30;99.10;;;;;;4998936;28;20062;-79
2022/01/08 07:03:39;;;;;;;110.47;98.72;;;2.30;99.00;;;;;;4999193;28;20054;-79
2022/01/08 07:06:06;;;;;;;111.47;99.72;;;2.30;99.00;;;;;;4982263;28;20088;-79
2022/01/08 07:08:34;;;;;;;111.03;98.93;;;2.40;99.00;;;;;;4998314;28;20050;-79
2022/01/08 07:11:01;;;;;;;112.20;100.22;;;2.40;99.00;;;;;;4998612;28;20389;-79
2022/01/08 07:13:28;;;;;;;112.13;99.38;;;2.30;98.90;;;;;;4998752;28;20058;-79
2022/01/08 07:15:55;;;;;;;111.07;99.53;;;2.40;99.00;;;;;;4998706;28;20520;-79
2022/01/08 07:18:22;;;;;;;112.25;99.97;;;2.30;98.90;;;;;;4979251;28;20078;-79
2022/01/08 07:20:49;;;;;;;111.38;99.43;;;2.40;98.90;;;;;;4978968;28;20505;-79
2022/01/08 07:23:16;;;;;;;114.25;102.47;;;2.30;98.90;;;;;;4995333;28;20147;-80
2022/01/08 07:25:45;;;;;;;111.28;99.05;;;2.30;98.90;;;;;;5014707;28;20050;-79
2022/01/08 07:28:12;;;;;;;110.53;98.68;;;2.30;98.90;;;;;;4997964;28;20065;-79
2022/01/08 07:30:39;;;;;;;109.72;98.13;;;2.30;99.00;;;;;;4998165;28;20054;-79
2022/01/08 07:33:06;;;;;;;112.00;100.07;;;2.30;99.00;;;;;;4981807;28;20050;-79
2022/01/08 07:35:33;;;;;;;111.15;99.05;;;2.30;99.00;;;;;;4997965;28;20050;-79
2022/01/08 07:38:00;;;;;;;109.60;97.80;;;2.30;98.90;;;;;;4997727;28;20145;-79
2022/01/08 07:40:27;;;;;;;111.63;99.40;;;2.30;99.00;;;;;;4998374;28;20055;-80
2022/01/08 07:42:56;;;;;;;110.20;98.38;;;2.30;99.00;;;;;;4997976;28;20056;-79
2022/01/08 07:45:23;;;;;;;109.55;97.93;;;2.30;99.00;;;;;;4997630;28;20062;-80
2022/01/08 07:47:51;;;;;;;111.22;99.53;;;2.30;99.00;;;;;;4980654;28;20050;-80
2022/01/08 07:50:19;;;;;;;109.57;97.55;;;2.30;99.00;;;;;;4997786;28;20058;-80
2022/01/08 07:52:46;;;;;;;109.80;98.13;;;2.40;99.00;;;;;;5005217;28;20134;-80
2022/01/08 07:55:14;;;;;;;111.45;99.43;;;2.30;99.00;;;;;;4994715;28;20058;-81
2022/01/08 07:57:42;;;;;;;113.30;98.93;;;2.30;99.00;;;;;;5015371;28;20541;-80
2022/01/08 08:00:11;;;;;;;111.40;98.97;;;2.40;99.00;;;;;;5012365;28;20125;-80
2022/01/08 08:02:41;;;;;;;110.28;98.13;;;2.40;98.90;;;;;;4997727;28;20050;-80
2022/01/08 08:05:09;;;;;;;109.50;97.70;;;2.40;99.00;;;;;;4997283;28;20050;-79
2022/01/08 08:07:37;;;;;;;109.90;98.05;;;2.40;99.00;;;;;;4997688;28;20042;-79
2022/01/08 08:10:07;;;;;;;108.82;97.25;;;2.40;99.00;;;;;;4997249;28;20141;-79
2022/01/08 08:12:34;;;;;;;111.97;100.28;;;2.40;99.00;;;;;;4927398;28;20126;-80
2022/01/08 08:15:02;;;;;;;109.32;97.63;;;2.40;99.00;;;;;;4996313;28;20133;-80
2022/01/08 08:17:30;;;;;;;111.30;99.55;;;2.40;99.00;;;;;;4997556;28;20058;-81
2022/01/08 08:19:57;;;;;;;109.95;98.18;;;2.40;99.00;;;;;;4996965;28;20054;-79
2022/01/08 08:22:24;;;;;;;111.80;99.85;;;2.40;99.00;;;;;;4997461;28;20092;-79
2022/01/08 08:24:51;;;;;;;109.25;97.63;;;2.40;99.00;;;;;;5014211;28;20050;-78
2022/01/08 08:27:24;;;;;;;108.28;96.90;;;2.40;99.00;;;;;;4999003;28;20544;-79
2022/01/08 08:29:51;;;;;;;108.95;97.40;;;2.40;99.00;;;;;;4978047;28;20051;-79
2022/01/08 08:32:18;;;;;;;109.30;97.47;;;2.40;98.90;;;;;;5004816;28;20053;-79
2022/01/08 08:34:46;;;;;;;110.22;98.18;;;2.30;98.90;;;;;;5009467;28;20057;-79
2022/01/08 08:37:14;;;;;;;110.43;98.68;;;2.40;99.00;;;;;;5003554;28;20085;-78
2022/01/08 08:39:41;;;;;;;109.18;97.57;;;2.40;99.00;;;;;;4989741;28;20054;-79
2022/01/08 08:42:08;;;;;;;110.00;98.20;;;2.40;99.00;;;;;;5025504;28;20052;-79
2022/01/08 08:44:36;;;;;;;111.22;99.40;;;2.40;98.90;;;;;;4999486;28;20046;-80
2022/01/08 08:47:04;;;;;;;111.20;99.45;;;2.40;99.00;;;;;;5006090;28;20057;-79
2022/01/08 08:49:33;;;;;;;108.88;97.43;;;2.40;99.00;;;;;;5014707;28;20524;-79
2022/01/08 08:52:01;;;;;;;110.50;98.60;;;2.40;99.00;;;;;;4997040;28;20050;-79
2022/01/08 08:54:29;;;;;;;109.75;98.03;;;2.40;99.00;;;;;;4997162;28;20058;-79
2022/01/08 08:56:56;;;;;;;111.30;99.28;;;2.40;99.00;;;;;;4997011;28;20050;-80
2022/01/08 08:59:24;;;;;;;109.70;98.07;;;2.40;99.00;;;;;;4997283;28;20133;-80
2022/01/08 09:01:51;;;;;;;109.68;98.20;;;2.40;99.00;;;;;;5002617;28;20054;-79
2022/01/08 09:04:18;;;;;;;110.65;98.65;;;2.40;99.00;;;;;;4996559;28;20221;-79
2022/01/08 09:06:46;;;;;;;110.47;98.13;;;2.40;99.00;;;;;;5013958;28;20125;-78
2022/01/08 09:09:14;;;;;;;110.50;98.85;;;2.50;99.00;;;;;;4988080;28;20050;-80
2022/01/08 09:11:42;;;;;;;113.22;101.05;;;2.50;99.00;;;;;;5005407;28;20134;-79
2022/01/08 09:14:09;;;;;;;112.10;100.18;;;2.50;99.00;;;;;;4996189;28;20061;-79
2022/01/08 09:16:37;;;;;;;110.80;99.20;;;2.60;99.00;;;;;;4980752;28;20058;-79
2022/01/08 09:19:05;;;;;;;110.15;98.60;;;2.50;98.90;;;;;;4996675;28;20096;-79
2022/01/08 09:21:32;;;;;;;111.63;99.60;;;2.50;98.90;;;;;;4996816;28;20054;-79
2022/01/08 09:23:59;;;;;;;109.82;98.28;;;2.60;98.90;;;;;;4996724;28;20064;-79
2022/01/08 09:26:27;;;;;;;;;;;2.60;98.90;;;;;;4997449;28;20140;-79
2022/01/08 09:28:54;;;;;;;113.03;100.88;;;2.60;98.90;;;;;;5028584;28;19930;-80
2022/01/08 09:31:21;;;;;;;112.00;100.00;;;2.60;98.90;;;;;;4996540;28;20133;-80
2022/01/08 09:33:48;;;;;;;111.18;99.45;;;2.60;98.90;;;;;;5005334;28;20143;-79
2022/01/08 09:36:16;;;;;;;111.18;99.20;;;2.60;98.90;;;;;;5017506;28;20058;-81
2022/01/08 09:38:43;;;;;;;109.85;97.97;;;2.60;98.80;;;;;;4979921;28;20397;-82
2022/01/08 09:41:10;;;;;;;112.25;100.35;;;2.60;98.80;;;;;;4995324;28;20134;-81
2022/01/08 09:43:39;;;;;;;110.78;99.00;;;2.60;98.90;;;;;;5009994;28;20054;-80
2022/01/08 09:46:06;;;;;;;113.03;101.03;;;2.60;98.90;;;;;;4996416;28;20046;-82
2022/01/08 09:48:33;;;;;;;112.53;100.75;;;2.70;99.00;;;;;;4983640;28;20116;-81
2022/01/08 09:51:00;;;;;;;112.85;100.65;;;2.60;98.90;;;;;;4992418;28;20129;-81
2022/01/08 09:53:27;;;;;;;113.32;100.90;;;2.70;99.00;;;;;;5003328;28;20140;-81
2022/01/08 09:55:55;;;;;;;112.43;99.95;;;2.70;98.90;;;;;;5005979;28;20055;-81
2022/01/08 09:58:22;;;;;;;113.80;101.80;;;2.70;98.90;;;;;;4986248;28;20046;-81
2022/01/08 10:00:50;;;;;;;111.63;99.80;;;2.80;98.90;;;;;;4995675;28;20555;-79
2022/01/08 10:03:20;;;;;;;115.82;103.13;;;2.80;98.80;;;;;;4983425;28;20051;-80
2022/01/08 10:05:49;;;;;;;112.88;101.00;;;2.80;98.80;;;;;;5005853;28;20055;-80
2022/01/08 10:08:22;;;;;;;113.38;101.15;;;2.80;98.80;;;;;;5015911;28;20125;-80
2022/01/08 10:10:59;;;;;;;112.93;100.97;;;2.90;98.70;;;;;;4999625;28;20050;-80
2022/01/08 10:13:29;;;;;;;114.13;101.75;;;2.90;98.70;;;;;;4982680;28;20538;-81
2022/01/08 10:18:45;;;;;;;113.15;100.88;;;3.00;98.70;;;;;;5012574;28;20057;-86
2022/01/08 10:21:18;;;;;;;114.80;102.55;;;3.00;98.80;;;;;;4982998;28;20047;-81
2022/01/08 10:23:49;;;;;;;114.55;102.22;;;3.00;98.70;;;;;;4999311;28;20054;-81
2022/01/08 10:26:18;;;;;;;114.40;102.15;;;3.00;98.80;;;;;;5015691;28;20139;-81
2022/01/08 10:28:48;;;;;;;112.45;100.63;;;3.00;98.80;;;;;;5015453;28;20090;-81
2022/01/08 10:31:21;;;;;;;114.55;102.50;;;3.00;98.80;;;;;;4999189;28;20767;-80
2022/01/08 10:33:52;;;;;;;114.55;101.95;;;3.10;98.80;;;;;;5018679;28;20084;-82
2022/01/08 10:36:26;;;;;;;115.32;102.82;;;3.20;98.70;;;;;;5000486;28;20500;-81
2022/01/08 10:38:55;;;;;;;115.82;103.32;;;3.30;98.50;;;;;;4999140;28;20050;-82
2022/01/08 10:41:24;;;;;;;116.25;103.68;;;3.30;98.50;;;;;;4999077;28;20650;-82
2022/01/08 10:44:07;;;;;;;116.10;103.95;;;3.30;98.40;;;;;;4999055;28;20050;-82
2022/01/08 10:46:36;;;;;;;117.97;104.60;;;3.40;98.50;;;;;;5002001;28;20113;-81
2022/01/08 10:49:03;;;;;;;115.95;103.88;;;3.30;98.50;;;;;;5007475;28;20944;-82
2022/01/08 10:51:34;;;;;;;;;;;3.30;98.70;;;;;;4999266;28;20057;-81
2022/01/08 10:54:05;;;;;;;115.45;102.47;;;3.30;98.70;;;;;;5028860;28;19926;-81
2022/01/08 10:56:34;;;;;;;118.38;105.63;;;3.30;98.70;;;;;;4983915;28;20055;-81
2022/01/08 10:59:11;;;;;;;118.97;105.78;;;3.40;98.80;;;;;;4997602;28;21552;-82
2022/01/08 11:01:42;;;;;;;116.25;103.47;;;3.50;98.80;;;;;;5003794;28;20137;-81
2022/01/08 11:04:11;;;;;;;115.00;102.53;;;3.50;98.70;;;;;;4990659;28;20112;-80
2022/01/08 11:06:57;;;;;;;115.70;103.50;;;3.50;98.80;;;;;;4986826;28;20054;-80
2022/01/08 11:09:26;;;;;;;117.82;104.95;;;3.60;98.90;;;;;;4998752;28;20074;-81
2022/01/08 11:11:54;;;;;;;117.43;104.78;;;3.60;98.80;;;;;;5014209;28;20046;-80
2022/01/08 11:14:45;;;;;;;115.18;102.78;;;3.70;98.80;;;;;;4998465;28;20047;-80
2022/01/08 11:17:16;;;;;;;116.13;104.05;;;3.70;98.80;;;;;;4998034;28;20057;-78
2022/01/08 11:19:45;;;;;;;114.78;102.57;;;3.70;98.90;;;;;;4998332;28;20587;-77
2022/01/08 11:22:14;;;;;;;115.80;103.57;;;3.80;98.90;;;;;;4998674;28;20065;-80
2022/01/08 11:24:50;;;;;;;115.20;102.80;;;3.80;98.80;;;;;;4998466;28;20061;-80
2022/01/08 11:27:22;;;;;;;114.28;102.28;;;3.80;98.70;;;;;;4998465;28;20067;-79
2022/01/08 11:29:59;;;;;;;117.57;104.93;;;3.80;98.70;;;;;;4979375;28;20162;-81
2022/01/08 11:32:28;;;;;;;116.93;104.25;;;3.90;98.70;;;;;;4982922;28;20051;-78
2022/01/08 11:34:56;;;;;;;116.45;104.47;;;3.90;98.60;;;;;;4989315;28;20057;-78
2022/01/08 11:37:25;;;;;;;116.50;103.70;;;3.90;98.70;;;;;;4989984;28;20565;-78
2022/01/08 11:39:53;;;;;;;117.25;105.07;;;3.90;98.80;;;;;;4997669;28;20085;-78
2022/01/08 11:42:22;;;;;;;115.32;103.53;;;3.90;98.80;;;;;;5015033;28;20050;-77
2022/01/08 11:44:51;;;;;;;117.45;105.20;;;3.90;98.70;;;;;;4997705;28;20108;-79
2022/01/08 11:47:20;;;;;;;117.53;105.03;;;3.90;98.80;;;;;;4997343;28;20058;-83
2022/01/08 11:49:50;;;;;;;117.20;104.95;;;4.00;98.70;;;;;;4997601;28;20060;-80
2022/01/08 11:52:20;;;;;;;122.65;109.90;;;4.00;98.70;;;;;;4983406;28;20061;-80
2022/01/08 11:54:49;;;;;;;120.38;107.20;;;4.00;98.70;;;;;;4977623;28;20047;-78
2022/01/08 11:57:18;;;;;;;119.50;107.13;;;4.10;98.60;;;;;;5007210;28;20569;-78
2022/01/08 11:59:45;;;;;;;117.80;105.22;;;4.10;98.70;;;;;;5015466;28;20152;-79
2022/01/08 12:02:14;;;;;;;118.32;105.78;;;4.10;98.70;;;;;;4998172;28;20059;-79
2022/01/08 12:04:44;;;;;;;119.65;107.13;;;4.10;98.70;;;;;;5006473;28;20061;-78
2022/01/08 12:07:32;;;;;;;117.43;105.15;;;4.20;98.60;;;;;;4997989;28;20520;-79
2022/01/08 12:10:30;;;;;;;118.57;106.18;;;4.20;98.70;;;;;;4997719;28;20054;-77
2022/01/08 12:13:00;;;;;;;117.72;105.47;;;4.20;98.60;;;;;;4996661;28;20090;-81
2022/01/08 12:15:49;;;;;;;120.10;107.70;;;4.20;98.50;;;;;;4981640;28;20563;-79
2022/01/08 12:18:18;;;;;;;121.00;108.35;;;4.20;98.50;;;;;;4997640;28;20073;-81
2022/01/08 12:20:48;;;;;;;121.38;108.88;;;4.20;98.70;;;;;;5008105;28;20847;-79
2022/01/08 12:23:30;;;;;;;124.30;111.30;;;4.20;98.60;;;;;;5013039;28;20129;-79
2022/01/08 12:25:57;;;;;;;123.82;110.55;;;4.30;98.50;;;;;;5019947;28;20042;-80
2022/01/08 12:28:53;;;;;;;124.65;111.80;;;4.30;98.50;;;;;;5000688;28;20432;-79
2022/01/08 12:31:30;;;;;;;124.53;111.30;;;4.20;98.60;;;;;;5013183;28;20101;-81
2022/01/08 12:34:35;;;;;;;126.45;113.30;;;4.20;98.60;;;;;;4997296;28;20057;-79
2022/01/08 12:37:05;;;;;;;122.03;109.32;;;4.30;98.50;;;;;;5013445;28;20133;-78
2022/01/08 12:40:04;;;;;;;123.70;110.18;;;4.30;98.30;;;;;;5015005;28;20059;-78
2022/01/08 12:42:50;;;;;;;121.90;109.00;;;4.20;98.30;;;;;;4900023;29;20818;-78
2022/01/08 12:45:20;;;;;;;124.28;111.28;;;4.20;98.50;;;;;;4989389;28;20058;-80
2022/01/08 12:47:54;;;;;;;124.00;111.30;;;4.20;98.50;;;;;;4996619;28;20050;-78
2022/01/08 12:50:28;;;;;;;124.85;111.72;;;4.20;98.30;;;;;;5011875;28;20061;-78
2022/01/08 12:53:22;;;;;;;124.22;111.22;;;4.20;98.30;;;;;;4998111;28;20062;-77
2022/01/08 12:56:13;;;;;;;130.57;116.70;;;4.20;98.30;;;;;;4999170;28;20073;-79